Time;durP1;ratioP1;P1;durP2;ratioP2;P2;SDS_P1;SDS_P2;PMS_P1;PMS_P2;Temp;Humidity;BMP_temperature;BMP_pressure;BME280_temperature;BME280_humidity;BME280_pressure;Samples;Min_cycle;Max_cycle;Signal;HPM_P1;HPM_P2
2022/10/13 00:01:34;;;;;;;44.50;26.25;;;;;;;10.17;100.00;101827.06;5132277;28;20019;-49
2022/10/13 00:03:59;;;;;;;50.20;25.83;;;;;;;10.20;100.00;101819.47;5133507;28;20042;-48
2022/10/13 00:06:26;;;;;;;41.80;26.25;;;;;;;10.21;100.00;101828.06;5133431;28;20023;-50
2022/10/13 00:08:51;;;;;;;43.25;25.20;;;;;;;10.16;100.00;101817.56;5132600;28;20020;-50
2022/10/13 00:11:22;;;;;;;50.22;25.92;;;;;;;10.18;100.00;101828.81;5133637;28;20085;-48
2022/10/13 00:13:49;;;;;;;48.28;26.67;;;;;;;10.18;100.00;101815.94;5133108;28;20060;-49
2022/10/13 00:16:17;;;;;;;51.05;27.45;;;;;;;10.20;100.00;101819.47;5132438;28;20026;-51
2022/10/13 00:18:42;;;;;;;51.45;24.83;;;;;;;10.24;100.00;101809.28;5135272;27;20405;-48
2022/10/13 00:21:13;;;;;;;50.85;27.00;;;;;;;10.23;100.00;101804.97;5137190;27;20492;-49
2022/10/13 00:23:38;;;;;;;45.38;25.60;;;;;;;10.26;100.00;101805.09;5136591;27;20493;-49
2022/10/13 00:26:06;;;;;;;48.10;26.23;;;;;;;10.26;100.00;101802.53;5137029;27;20019;-48
2022/10/13 00:28:32;;;;;;;46.78;26.02;;;;;;;10.26;100.00;101802.53;5135702;27;20087;-46
2022/10/13 00:30:57;;;;;;;44.20;24.65;;;;;;;10.26;100.00;101799.97;5137063;27;20106;-50
2022/10/13 00:33:22;;;;;;;45.70;25.25;;;;;;;10.27;100.00;101799.16;5137010;27;20433;-50
2022/10/13 00:35:48;;;;;;;46.80;24.50;;;;;;;10.27;100.00;101805.19;5135829;27;20022;-50
2022/10/13 00:38:16;;;;;;;49.60;25.20;;;;;;;10.28;100.00;101800.94;5136814;27;20027;-50
2022/10/13 00:40:45;;;;;;;48.22;24.85;;;;;;;10.27;100.00;101794.00;5136485;27;20019;-51
2022/10/13 00:43:25;;;;;;;48.85;25.33;;;;;;;10.29;100.00;101800.09;5135715;27;20041;-50
2022/10/13 00:45:52;;;;;;;46.33;23.73;;;;;;;10.30;100.00;101796.69;5136226;27;20065;-48
2022/10/13 00:48:21;;;;;;;42.45;24.45;;;;;;;10.29;100.00;101798.41;5136428;27;20044;-50
2022/10/13 00:50:47;;;;;;;44.17;24.63;;;;;;;10.31;100.00;101801.06;5135461;27;20031;-50
2022/10/13 00:53:15;;;;;;;43.70;23.13;;;;;;;10.33;100.00;101794.28;5136377;27;20019;-49
2022/10/13 00:55:41;;;;;;;;;;;;;;;10.36;100.00;101795.31;5136459;27;20032;-50
2022/10/13 00:58:11;;;;;;;50.08;25.73;;;;;;;10.33;100.00;101791.72;5135758;27;20300;-50
2022/10/13 01:00:37;;;;;;;42.30;24.42;;;;;;;10.35;100.00;101792.66;5136100;27;20020;-47
2022/10/13 01:03:03;;;;;;;43.83;24.75;;;;;;;10.35;100.00;101792.66;5136295;27;20057;-50
2022/10/13 01:05:29;;;;;;;45.25;25.55;;;;;;;10.35;100.00;101788.44;5135485;27;20026;-49
2022/10/13 01:07:56;;;;;;;42.42;24.73;;;;;;;10.36;100.00;101797.91;5135944;27;20026;-50
2022/10/13 01:11:00;;;;;;;47.08;24.52;;;;;;;10.36;100.00;101794.44;5135950;27;20022;-51
2022/10/13 01:13:33;;;;;;;39.60;21.98;;;;;;;10.40;100.00;101786.03;5136055;27;20031;-50
2022/10/13 01:16:02;;;;;;;46.50;24.10;;;;;;;10.38;100.00;101788.56;5136091;27;20039;-49
2022/10/13 01:18:55;;;;;;;43.35;24.17;;;;;;;10.42;100.00;101789.59;5135068;27;20094;-48
2022/10/13 01:21:29;;;;;;;51.58;24.30;;;;;;;10.45;100.00;101788.84;5136102;27;20102;-49
2022/10/13 01:24:08;;;;;;;47.78;23.23;;;;;;;10.47;100.00;101792.34;5135650;27;20027;-49
2022/10/13 01:26:41;;;;;;;51.47;24.27;;;;;;;10.48;100.00;101787.28;5134868;27;20045;-50
2022/10/13 01:29:12;;;;;;;53.45;23.80;;;;;;;10.49;100.00;101785.56;5135148;27;20080;-50
2022/10/13 01:32:12;;;;;;;48.17;23.67;;;;;;;10.50;100.00;101790.78;5134818;27;20024;-50
2022/10/13 01:34:54;;;;;;;41.78;23.20;;;;;;;10.53;100.00;101788.38;5135396;27;20023;-50
2022/10/13 01:37:28;;;;;;;51.25;22.77;;;;;;;10.49;100.00;101791.59;5135539;27;20043;-49
2022/10/13 01:40:05;;;;;;;50.22;23.88;;;;;;;10.51;100.00;101790.00;5134425;27;20371;-50
2022/10/13 01:42:57;;;;;;;52.20;24.55;;;;;;;10.52;100.00;101786.59;5135308;27;20083;-50
2022/10/13 01:45:29;;;;;;;49.38;24.70;;;;;;;10.51;100.00;101795.16;5123593;27;20031;-49
2022/10/13 01:47:57;;;;;;;48.97;24.15;;;;;;;10.47;100.00;101782.94;5134587;27;20043;-48
2022/10/13 01:50:22;;;;;;;47.03;24.92;;;;;;;10.48;100.00;101776.97;5135503;27;20031;-49
2022/10/13 01:52:49;;;;;;;44.08;23.17;;;;;;;10.50;100.00;101779.63;5134182;27;20033;-50
2022/10/13 01:55:14;;;;;;;51.15;23.60;;;;;;;10.48;100.00;101779.56;5135287;27;20038;-51
2022/10/13 01:57:43;;;;;;;55.30;24.42;;;;;;;10.52;100.00;101773.72;5134967;27;20382;-51
2022/10/13 02:00:10;;;;;;;50.38;22.95;;;;;;;10.54;100.00;101766.91;5134292;27;20023;-50
2022/10/13 02:02:39;;;;;;;;;;;;;;;10.59;100.00;101776.53;5135084;27;20493;-49
2022/10/13 02:05:41;;;;;;;43.45;22.45;;;;;;;10.56;100.00;101763.53;5135088;27;19979;-50
2022/10/13 02:08:13;;;;;;;51.40;23.77;;;;;;;10.51;100.00;101753.03;5134261;27;20036;-50
2022/10/13 02:10:42;;;;;;;43.55;23.15;;;;;;;10.51;100.00;101753.91;5134485;27;20071;-51
2022/10/13 02:13:11;;;;;;;47.72;23.88;;;;;;;10.49;100.00;101755.53;5135078;27;20034;-50
2022/10/13 02:15:42;;;;;;;49.17;23.45;;;;;;;10.51;100.00;101759.06;5134083;27;20034;-50
2022/10/13 02:18:10;;;;;;;48.55;25.20;;;;;;;10.52;100.00;101755.69;5134972;27;20023;-49
2022/10/13 02:20:35;;;;;;;49.42;24.05;;;;;;;10.53;100.00;101757.44;5134610;27;20037;-49
2022/10/13 02:23:06;;;;;;;52.45;24.40;;;;;;;10.53;100.00;101746.22;5133668;27;20019;-49
2022/10/13 02:25:32;;;;;;;46.28;23.23;;;;;;;10.53;100.00;101741.97;5134658;27;20110;-49
2022/10/13 02:28:00;;;;;;;52.47;22.77;;;;;;;10.54;100.00;101735.97;5134025;27;20038;-50
2022/10/13 02:30:28;;;;;;;49.03;24.38;;;;;;;10.54;100.00;101748.00;5134746;27;20027;-50
2022/10/13 02:32:53;;;;;;;48.05;24.20;;;;;;;10.52;100.00;101729.91;5116297;27;20019;-49
2022/10/13 02:35:19;;;;;;;50.47;24.13;;;;;;;10.51;100.00;101730.72;5133825;27;20027;-48
2022/10/13 02:37:44;;;;;;;44.22;23.60;;;;;;;10.53;100.00;101723.94;5134145;27;20023;-51
2022/10/13 02:40:10;;;;;;;51.03;25.45;;;;;;;10.56;100.00;101735.19;5134518;27;20027;-49
2022/10/13 02:42:36;;;;;;;44.60;22.63;;;;;;;10.58;100.00;101725.81;5133721;27;20035;-46
2022/10/13 02:45:01;;;;;;;48.13;23.98;;;;;;;10.60;100.00;101727.66;5134400;27;20034;-50
2022/10/13 02:47:26;;;;;;;50.22;23.38;;;;;;;10.65;100.00;101730.41;5134168;27;20047;-47
2022/10/13 02:49:51;;;;;;;43.50;22.67;;;;;;;10.66;100.00;101727.03;5133326;27;20102;-50
2022/10/13 02:52:17;;;;;;;43.00;22.55;;;;;;;10.68;100.00;101733.16;5134173;27;20026;-51
2022/10/13 02:54:42;;;;;;;43.47;22.42;;;;;;;10.67;100.00;101733.97;5134073;27;20024;-50
2022/10/13 02:57:07;;;;;;;57.80;24.20;;;;;;;10.69;100.00;101725.47;5133465;27;20053;-50
2022/10/13 02:59:33;;;;;;;48.17;24.02;;;;;;;10.69;100.00;101727.16;5133945;27;20019;-50
2022/10/13 03:01:58;;;;;;;44.38;22.25;;;;;;;10.66;100.00;101712.44;5134163;27;20026;-49
2022/10/13 03:04:23;;;;;;;45.00;22.63;;;;;;;10.67;100.00;101718.50;5133341;27;20027;-50
2022/10/13 03:06:49;;;;;;;41.65;22.98;;;;;;;10.66;100.00;101716.72;5133627;27;20024;-50
2022/10/13 03:09:14;;;;;;;45.72;23.85;;;;;;;10.66;100.00;101715.00;5134006;27;20054;-50
2022/10/13 03:11:39;;;;;;;46.58;22.75;;;;;;;10.65;100.00;101707.22;5133088;27;20106;-49
2022/10/13 03:14:05;;;;;;;42.38;22.85;;;;;;;10.64;100.00;101713.19;5134017;28;20019;-50
2022/10/13 03:16:30;;;;;;;44.88;22.50;;;;;;;10.61;100.00;101701.03;5134042;28;20106;-45
2022/10/13 03:18:55;;;;;;;41.47;21.00;;;;;;;10.63;100.00;101708.88;5133079;28;20026;-51
2022/10/13 03:21:20;;;;;;;44.63;22.58;;;;;;;10.62;100.00;101709.66;5133748;28;20416;-50
2022/10/13 03:23:46;;;;;;;43.45;22.55;;;;;;;10.61;100.00;101703.63;5133468;28;20481;-49
2022/10/13 03:26:11;;;;;;;42.53;22.08;;;;;;;10.62;100.00;101704.50;5133155;28;20031;-49
2022/10/13 03:28:37;;;;;;;45.50;22.83;;;;;;;10.64;100.00;101708.03;5133853;28;20065;-50
2022/10/13 03:31:05;;;;;;;42.15;22.50;;;;;;;10.65;100.00;101707.22;5133788;28;20382;-50
2022/10/13 03:33:30;;;;;;;44.63;22.05;;;;;;;10.68;100.00;101704.78;5132996;28;20027;-45
2022/10/13 03:36:00;;;;;;;46.63;21.95;;;;;;;10.69;100.00;101701.38;5133791;28;20023;-50
2022/10/13 03:38:27;;;;;;;42.00;21.85;;;;;;;10.69;100.00;101693.63;5132904;28;20524;-48
2022/10/13 03:40:52;;;;;;;37.70;20.73;;;;;;;10.72;100.00;101696.38;5133430;28;20420;-50
2022/10/13 03:43:17;;;;;;;36.28;20.67;;;;;;;10.73;100.00;101702.38;5133606;28;20474;-48
2022/10/13 03:45:42;;;;;;;43.60;22.25;;;;;;;10.75;100.00;101695.59;5132521;28;20023;-50
2022/10/13 03:48:08;;;;;;;39.13;20.67;;;;;;;10.73;100.00;101692.97;5133584;28;20043;-49
2022/10/13 03:50:33;;;;;;;48.85;21.33;;;;;;;10.73;100.00;101694.66;5133508;28;20059;-49
2022/10/13 03:52:58;;;;;;;39.45;21.55;;;;;;;10.74;100.00;101693.84;5134268;27;20027;-51
2022/10/13 03:55:24;;;;;;;40.05;21.70;;;;;;;10.74;100.00;101678.38;5137936;27;20031;-49
2022/10/13 03:57:49;;;;;;;39.35;21.85;;;;;;;10.74;100.00;101684.41;5137440;27;20019;-48
2022/10/13 04:00:14;;;;;;;36.33;22.05;;;;;;;10.75;100.00;101680.13;5136784;27;20435;-49
2022/10/13 04:02:40;;;;;;;45.17;21.42;;;;;;;10.79;100.00;101676.88;5137275;27;20038;-50
2022/10/13 04:05:05;;;;;;;41.55;22.52;;;;;;;10.79;100.00;101671.72;5137315;27;20035;-49
2022/10/13 04:07:30;;;;;;;40.22;21.23;;;;;;;10.80;100.00;101671.78;5136254;27;20026;-51
2022/10/13 04:09:56;;;;;;;40.30;20.48;;;;;;;10.80;100.00;101666.63;5137491;27;20031;-49
2022/10/13 04:12:21;;;;;;;43.97;21.05;;;;;;;10.83;100.00;101678.75;5137437;27;20482;-55
2022/10/13 04:14:46;;;;;;;38.05;20.70;;;;;;;10.85;100.00;101671.97;5136428;27;20027;-55
2022/10/13 04:17:11;;;;;;;40.78;21.85;;;;;;;10.87;100.00;101671.22;5137267;27;20026;-59
2022/10/13 04:19:37;;;;;;;39.75;20.85;;;;;;;10.90;100.00;101665.31;5137174;27;20019;-55
2022/10/13 04:22:03;;;;;;;38.92;21.88;;;;;;;10.89;100.00;101663.53;5136496;27;20451;-50
2022/10/13 04:24:28;;;;;;;36.45;21.23;;;;;;;10.86;100.00;101669.44;5137178;27;20065;-52
2022/10/13 04:26:53;;;;;;;39.17;21.52;;;;;;;10.84;100.00;101671.06;5137216;27;20050;-52
2022/10/13 04:29:19;;;;;;;35.67;20.65;;;;;;;10.82;100.00;101661.50;5136161;27;20034;-45
2022/10/13 04:31:44;;;;;;;37.17;22.45;;;;;;;10.82;100.00;101656.34;5136861;27;20039;-51
2022/10/13 04:34:10;;;;;;;37.83;21.67;;;;;;;10.80;100.00;101648.56;5136898;27;20027;-56
2022/10/13 04:36:36;;;;;;;43.40;21.95;;;;;;;10.76;100.00;101646.69;5135669;27;20047;-49
2022/10/13 04:39:03;;;;;;;44.88;21.42;;;;;;;10.75;100.00;101655.22;5136999;27;20046;-50
2022/10/13 04:41:28;;;;;;;37.05;22.10;;;;;;;10.76;100.00;101659.56;5136112;27;20019;-55
2022/10/13 04:43:54;;;;;;;42.38;22.45;;;;;;;10.74;100.00;101650.88;5136250;27;20378;-51
2022/10/13 04:46:22;;;;;;;39.42;21.85;;;;;;;10.76;100.00;101657.00;5136752;27;20058;-49
2022/10/13 04:48:48;;;;;;;43.65;21.77;;;;;;;10.76;100.00;101664.72;5135167;27;20687;-48
2022/10/13 04:51:16;;;;;;;41.15;21.85;;;;;;;10.77;100.00;101652.69;5136388;27;20118;-50
2022/10/13 04:53:41;;;;;;;;;;;;;;;10.82;100.00;101652.09;5136530;27;20458;-50
2022/10/13 04:56:12;;;;;;;42.30;21.20;;;;;;;10.78;100.00;101655.38;5135752;27;20016;-48
2022/10/13 04:58:39;;;;;;;42.15;22.48;;;;;;;10.79;100.00;101662.25;5136192;27;20023;-50
2022/10/13 05:01:06;;;;;;;46.75;22.65;;;;;;;10.74;100.00;101658.63;5136178;27;20485;-50
2022/10/13 05:03:32;;;;;;;39.22;22.40;;;;;;;10.76;100.00;101659.56;5135015;27;20027;-49
2022/10/13 05:05:57;;;;;;;39.40;21.77;;;;;;;10.74;100.00;101660.31;5135382;27;20015;-48
2022/10/13 05:08:23;;;;;;;38.45;21.02;;;;;;;10.73;100.00;101644.00;5136229;27;20023;-51
2022/10/13 05:11:00;;;;;;;49.05;22.38;;;;;;;10.74;100.00;101647.44;5135303;27;20015;-49
2022/10/13 05:13:26;;;;;;;44.28;22.05;;;;;;;10.68;100.00;101630.03;5136154;27;20027;-49
2022/10/13 05:15:52;;;;;;;41.33;22.00;;;;;;;10.66;100.00;101629.94;5135796;27;20058;-48
2022/10/13 05:18:18;;;;;;;43.28;21.75;;;;;;;10.67;100.00;101641.16;5135408;27;20066;-50
2022/10/13 05:20:43;;;;;;;36.38;21.50;;;;;;;10.64;100.00;101653.88;5135887;27;20019;-51
2022/10/13 05:23:09;;;;;;;38.85;21.38;;;;;;;10.64;100.00;101644.47;5135749;27;20027;-49
2022/10/13 05:25:35;;;;;;;44.88;22.85;;;;;;;10.66;100.00;101649.69;5134749;27;20024;-51
2022/10/13 05:28:02;;;;;;;40.08;22.95;;;;;;;10.67;100.00;101656.63;5135658;27;20428;-49
2022/10/13 05:30:27;;;;;;;42.67;22.90;;;;;;;10.64;100.00;101651.31;5135770;27;20055;-48
2022/10/13 05:32:53;;;;;;;42.17;22.77;;;;;;;10.63;100.00;101655.59;5134503;27;20099;-49
2022/10/13 05:35:18;;;;;;;40.85;22.05;;;;;;;10.61;100.00;101666.66;5135566;27;20027;-49
2022/10/13 05:37:43;;;;;;;37.90;22.70;;;;;;;10.57;100.00;101667.34;5134725;27;20058;-47
2022/10/13 05:40:09;;;;;;;40.42;23.17;;;;;;;10.59;100.00;101663.13;5135655;27;20015;-50
2022/10/13 05:42:35;;;;;;;38.80;23.02;;;;;;;10.56;100.00;101663.00;5135240;27;20371;-49
2022/10/13 05:45:00;;;;;;;38.38;22.10;;;;;;;10.53;100.00;101668.91;5134466;27;20030;-50
2022/10/13 05:47:27;;;;;;;47.88;22.92;;;;;;;10.53;100.00;101649.19;5135194;27;20053;-50
2022/10/13 05:49:54;;;;;;;49.30;24.35;;;;;;;10.53;100.00;101658.59;5135293;27;20027;-49
2022/10/13 05:52:20;;;;;;;47.37;23.90;;;;;;;10.49;100.00;101652.44;5134483;27;20027;-48
2022/10/13 05:54:49;;;;;;;44.58;23.17;;;;;;;10.50;100.00;101654.19;5135186;27;20098;-48
2022/10/13 05:57:18;;;;;;;47.20;23.40;;;;;;;10.52;100.00;101656.81;5135064;27;20055;-51
2022/10/13 05:59:49;;;;;;;41.08;23.88;;;;;;;10.52;100.00;101655.16;5134000;27;20024;-49
2022/10/13 06:02:17;;;;;;;42.78;24.40;;;;;;;10.51;100.00;101648.22;5135172;27;20023;-49
2022/10/13 06:04:46;;;;;;;49.95;26.13;;;;;;;10.50;100.00;101653.31;5134668;27;20027;-48
2022/10/13 06:07:12;;;;;;;42.63;23.73;;;;;;;10.49;100.00;101641.25;5134188;27;20031;-49
2022/10/13 06:09:39;;;;;;;44.90;25.10;;;;;;;10.53;100.00;101646.63;5134628;27;20069;-48
2022/10/13 06:12:06;;;;;;;48.57;24.63;;;;;;;10.53;100.00;101644.03;5134780;27;20023;-50
2022/10/13 06:14:32;;;;;;;43.20;24.42;;;;;;;10.54;100.00;101643.19;5133717;27;20485;-49
2022/10/13 06:16:57;;;;;;;52.75;25.42;;;;;;;10.58;100.00;101640.75;5134596;27;20031;-50
2022/10/13 06:19:23;;;;;;;44.67;23.27;;;;;;;10.61;100.00;101630.56;5134802;27;20050;-49
2022/10/13 06:21:48;;;;;;;45.33;24.98;;;;;;;10.62;100.00;101627.19;5133667;27;20030;-50
2022/10/13 06:24:13;;;;;;;46.03;24.45;;;;;;;10.65;100.00;101629.88;5134690;27;20465;-49
2022/10/13 06:26:40;;;;;;;41.53;23.77;;;;;;;10.66;100.00;101635.09;5134468;27;20031;-50
2022/10/13 06:29:05;;;;;;;45.60;24.85;;;;;;;10.67;100.00;101628.25;5133650;27;20034;-50
2022/10/13 06:31:30;;;;;;;50.65;24.30;;;;;;;10.69;100.00;101629.19;5134256;27;20084;-48
2022/10/13 06:33:57;;;;;;;47.78;25.10;;;;;;;10.74;100.00;101631.97;5134520;27;20019;-47
2022/10/13 06:36:22;;;;;;;47.67;25.17;;;;;;;10.73;100.00;101623.38;5134243;27;20042;-49
2022/10/13 06:38:47;;;;;;;48.83;27.20;;;;;;;10.75;100.00;101626.88;5134221;27;20378;-48
2022/10/13 06:41:13;;;;;;;49.97;29.80;;;;;;;10.80;100.00;101633.09;5133357;27;20470;-48
2022/10/13 06:43:38;;;;;;;45.38;25.08;;;;;;;10.84;100.00;101631.53;5133885;27;20023;-48
2022/10/13 06:46:04;;;;;;;44.78;25.55;;;;;;;10.87;100.00;101629.97;5134458;27;20061;-51
2022/10/13 06:48:29;;;;;;;52.28;25.95;;;;;;;10.92;100.00;101631.84;5133192;27;20095;-45
2022/10/13 06:50:59;;;;;;;53.85;27.90;;;;;;;10.93;100.00;101631.03;5134323;27;20027;-49
2022/10/13 06:53:25;;;;;;;49.33;27.92;;;;;;;10.96;100.00;101624.31;5134371;27;20023;-50
2022/10/13 06:55:55;;;;;;;50.30;28.13;;;;;;;11.00;100.00;101630.44;5133201;27;20038;-50
2022/10/13 06:58:20;;;;;;;67.90;39.72;;;;;;;11.01;100.00;101622.78;5134341;27;20471;-50
2022/10/13 07:00:45;;;;;;;74.10;38.63;;;;;;;11.04;100.00;101627.19;5133942;27;20602;-48
2022/10/13 07:03:11;;;;;;;55.20;32.03;;;;;;;11.09;100.00;101632.50;5133078;27;20031;-51
2022/10/13 07:05:36;;;;;;;48.83;25.52;;;;;;;11.10;100.00;101624.81;5133830;27;20458;-50
2022/10/13 07:08:01;;;;;;;82.30;38.80;;;;;;;11.11;100.00;101618.84;5133990;27;20034;-50
2022/10/13 07:10:27;;;;;;;371.02;133.93;;;;;;;11.12;100.00;101623.22;5133206;27;20034;-51
2022/10/13 07:12:52;;;;;;;69.43;34.30;;;;;;;11.14;100.00;101626.75;5133655;27;20470;-49
2022/10/13 07:15:17;;;;;;;47.30;25.48;;;;;;;11.15;100.00;101627.59;5134380;28;20023;-49
2022/10/13 07:17:43;;;;;;;40.38;24.13;;;;;;;11.15;100.00;101625.91;5132975;28;20056;-49
2022/10/13 07:20:08;;;;;;;42.28;24.83;;;;;;;11.18;100.00;101623.47;5133823;28;20019;-50
2022/10/13 07:22:34;;;;;;;55.60;33.25;;;;;;;11.22;100.00;101633.88;5133642;28;20022;-50
2022/10/13 07:24:59;;;;;;;45.83;27.10;;;;;;;11.22;100.00;101637.38;5132835;28;20047;-49
2022/10/13 07:27:24;;;;;;;51.70;27.98;;;;;;;11.26;100.00;101633.19;5133884;27;20054;-50
2022/10/13 07:29:49;;;;;;;66.53;36.65;;;;;;;11.26;100.00;101638.34;5137728;27;20393;-50
2022/10/13 07:32:15;;;;;;;59.65;33.03;;;;;;;11.29;100.00;101643.66;5137230;27;20019;-50
2022/10/13 07:34:40;;;;;;;86.80;55.25;;;;;;;11.29;100.00;101634.19;5137602;27;20027;-50
2022/10/13 07:37:06;;;;;;;69.55;39.13;;;;;;;11.32;100.00;101638.59;5137921;27;20019;-47
2022/10/13 07:39:31;;;;;;;130.80;69.03;;;;;;;11.36;100.00;101630.13;5136778;27;20011;-49
2022/10/13 07:41:56;;;;;;;203.65;103.10;;;;;;;11.37;100.00;101637.06;5137822;27;20080;-51
2022/10/13 07:44:22;;;;;;;118.70;60.25;;;;;;;11.37;100.00;101629.31;5137024;27;20080;-50
2022/10/13 07:46:47;;;;;;;84.40;46.03;;;;;;;11.38;100.00;101628.50;5137584;27;20373;-50
2022/10/13 07:49:12;;;;;;;67.53;34.60;;;;;;;11.41;100.00;101631.19;5137498;27;20513;-51
2022/10/13 07:51:38;;;;;;;121.85;62.42;;;;;;;11.47;100.00;101634.03;5136720;27;20162;-50
2022/10/13 07:54:03;;;;;;;153.80;77.05;;;;;;;11.50;100.00;101629.00;5137580;27;20019;-49
2022/10/13 07:56:28;;;;;;;134.77;62.15;;;;;;;11.55;99.99;101628.28;5137385;27;20489;-49
2022/10/13 07:58:53;;;;;;;83.20;43.03;;;;;;;11.61;100.00;101631.97;5136375;27;20023;-49
2022/10/13 08:01:19;;;;;;;382.35;165.07;;;;;;;11.69;99.72;101630.56;5137676;27;20071;-50
2022/10/13 08:03:44;;;;;;;53.83;31.13;;;;;;;11.78;99.22;101631.72;5137353;27;20023;-50
2022/10/13 08:06:10;;;;;;;49.72;27.45;;;;;;;11.82;98.65;101631.88;5136554;27;20038;-49
2022/10/13 08:08:35;;;;;;;50.88;27.50;;;;;;;11.84;98.04;101630.25;5137160;27;20140;-50
2022/10/13 08:11:03;;;;;;;48.13;27.58;;;;;;;11.94;97.79;101634.06;5137189;27;20026;-50
2022/10/13 08:13:28;;;;;;;;;;;;;;;12.03;98.17;101636.13;5137156;27;20107;-50
2022/10/13 08:15:54;;;;;;;49.27;30.27;;;;;;;12.10;97.45;101627.78;5137136;27;19972;-50
2022/10/13 08:18:19;;;;;;;47.42;26.25;;;;;;;12.16;96.43;101633.16;5137019;27;20026;-49
2022/10/13 08:20:45;;;;;;;51.05;29.95;;;;;;;12.22;96.34;101621.28;5136112;27;20019;-50
2022/10/13 08:23:12;;;;;;;56.10;31.77;;;;;;;12.16;96.00;101622.84;5136907;27;20087;-50
2022/10/13 08:25:39;;;;;;;53.23;26.93;;;;;;;12.23;95.96;101620.47;5137194;27;20101;-51
2022/10/13 08:28:05;;;;;;;;;;;;;;;12.31;96.60;101617.31;5136692;27;20030;-49
2022/10/13 08:30:31;;;;;;;48.88;27.85;;;;;;;12.26;95.65;101617.97;5136438;27;20365;-50
2022/10/13 08:32:56;;;;;;;57.35;28.77;;;;;;;12.30;96.10;101617.25;5137059;27;20027;-50
2022/10/13 08:35:22;;;;;;;46.63;24.90;;;;;;;12.33;95.29;101618.25;5136184;27;20432;-48
2022/10/13 08:37:47;;;;;;;48.28;26.65;;;;;;;12.36;95.32;101614.88;5136436;27;20027;-51
2022/10/13 08:40:18;;;;;;;45.90;25.45;;;;;;;12.45;94.61;101610.03;5136450;27;20023;-49
2022/10/13 08:42:45;;;;;;;102.10;46.85;;;;;;;12.57;94.06;101603.53;5135713;27;20019;-50
2022/10/13 08:45:30;;;;;;;51.70;29.63;;;;;;;12.68;93.57;101612.53;5136689;27;20083;-49
2022/10/13 08:48:02;;;;;;;55.42;30.48;;;;;;;12.76;93.16;101616.22;5135475;27;20046;-48
2022/10/13 08:50:35;;;;;;;46.38;24.00;;;;;;;12.74;92.46;101601.50;5136560;27;20485;-50
2022/10/13 08:53:06;;;;;;;53.28;30.77;;;;;;;12.76;92.66;101613.66;5136513;27;20011;-49
2022/10/13 08:55:38;;;;;;;49.95;27.15;;;;;;;12.79;92.19;101611.16;5135454;27;20411;-49
2022/10/13 08:58:12;;;;;;;47.80;25.60;;;;;;;12.78;92.17;101614.59;5136535;27;20023;-50
2022/10/13 09:00:38;;;;;;;47.53;26.50;;;;;;;12.79;92.30;101605.97;5135985;27;20492;-45
2022/10/13 09:03:23;;;;;;;49.55;25.30;;;;;;;12.88;92.60;101607.13;5135398;27;20019;-50
2022/10/13 09:06:12;;;;;;;48.78;24.80;;;;;;;12.83;92.11;101618.19;5136233;27;20167;-50
2022/10/13 09:08:48;;;;;;;47.08;25.00;;;;;;;12.85;92.36;101605.31;5136010;27;20068;-49
2022/10/13 09:11:13;;;;;;;47.30;25.05;;;;;;;12.82;92.07;101605.19;5136123;27;20023;-50
2022/10/13 09:13:39;;;;;;;50.67;25.08;;;;;;;12.78;92.06;101601.66;5135664;27;20068;-51
2022/10/13 09:16:05;;;;;;;40.60;23.80;;;;;;;12.70;91.84;101600.50;5135161;27;20046;-48
2022/10/13 09:18:34;;;;;;;43.30;23.67;;;;;;;12.64;93.06;101606.38;5135616;27;20019;-45
2022/10/13 09:21:09;;;;;;;42.53;23.25;;;;;;;12.64;93.75;101597.72;5136056;27;20026;-50
2022/10/13 09:23:34;;;;;;;44.83;25.17;;;;;;;12.61;93.26;101595.03;5134750;27;20382;-50
2022/10/13 09:26:06;;;;;;;54.45;27.05;;;;;;;12.57;93.42;101601.81;5135758;27;20023;-48
2022/10/13 09:28:31;;;;;;;47.40;25.05;;;;;;;12.54;93.97;101603.41;5135702;27;20114;-51
2022/10/13 09:31:24;;;;;;;52.50;27.92;;;;;;;12.56;94.66;101609.50;5134791;27;20102;-51
2022/10/13 09:33:58;;;;;;;50.47;27.83;;;;;;;12.57;94.29;101600.94;5135365;27;20050;-49
2022/10/13 09:36:24;;;;;;;52.13;25.40;;;;;;;12.58;93.82;101602.69;5135550;27;20037;-49
2022/10/13 09:39:14;;;;;;;47.80;25.00;;;;;;;12.65;94.13;101596.88;5134840;27;20016;-48
2022/10/13 09:41:42;;;;;;;45.80;25.45;;;;;;;12.67;93.31;101590.06;5135366;27;20016;-50
2022/10/13 09:44:26;;;;;;;42.50;24.10;;;;;;;12.77;93.54;101592.13;5134466;27;20478;-50
2022/10/13 09:46:55;;;;;;;46.95;24.40;;;;;;;12.84;92.46;101583.72;5135155;27;20022;-49
2022/10/13 09:49:39;;;;;;;42.67;23.88;;;;;;;12.93;92.56;101587.44;5135479;27;20091;-50
2022/10/13 09:52:19;;;;;;;53.80;24.92;;;;;;;12.90;91.87;101585.66;5134039;27;20030;-50
2022/10/13 09:54:50;;;;;;;49.15;24.73;;;;;;;12.87;91.52;101592.41;5135092;27;20027;-51
2022/10/13 09:57:24;;;;;;;43.35;23.35;;;;;;;12.87;92.39;101592.41;5134952;27;20019;-50
2022/10/13 10:00:13;;;;;;;48.13;25.55;;;;;;;12.84;92.26;101585.44;5134174;27;20080;-50
2022/10/13 10:02:54;;;;;;;41.33;24.88;;;;;;;12.79;92.77;101590.44;5134853;27;20027;-49
2022/10/13 10:05:40;;;;;;;44.60;24.33;;;;;;;12.68;93.21;101584.06;5134138;27;20039;-50
2022/10/13 10:08:19;;;;;;;48.13;26.10;;;;;;;12.56;95.15;101596.59;5135294;27;20023;-49
2022/10/13 10:10:46;;;;;;;49.65;27.67;;;;;;;12.44;97.87;101591.88;5134874;27;20343;-50
2022/10/13 10:13:13;;;;;;;51.08;27.58;;;;;;;12.35;98.20;101587.28;5134187;27;20023;-50
2022/10/13 10:15:52;;;;;;;54.13;28.25;;;;;;;12.32;100.00;101579.44;5134470;27;20046;-49
2022/10/13 10:18:46;;;;;;;55.45;29.02;;;;;;;12.28;100.00;101582.75;5134729;27;20479;-51
2022/10/13 10:21:26;;;;;;;60.70;29.65;;;;;;;12.24;100.00;101576.59;5134045;27;20031;-48
2022/10/13 10:24:19;;;;;;;56.70;29.45;;;;;;;12.22;100.00;101575.63;5134372;27;20031;-49
2022/10/13 10:26:54;;;;;;;57.67;29.63;;;;;;;12.15;100.00;101577.13;5133803;27;20019;-49
2022/10/13 10:29:47;;;;;;;52.88;29.85;;;;;;;12.14;100.00;101575.38;5134704;27;20027;-50
2022/10/13 10:32:36;;;;;;;60.00;30.65;;;;;;;12.07;100.00;101581.16;5134434;27;20474;-49
2022/10/13 10:35:14;;;;;;;53.42;29.58;;;;;;;11.98;100.00;101578.22;5119856;27;20165;-49
2022/10/13 10:37:58;;;;;;;56.45;30.70;;;;;;;11.94;100.00;101573.75;5133983;27;20481;-48
2022/10/13 10:40:46;;;;;;;55.85;29.48;;;;;;;11.89;100.00;101575.28;5133587;27;20034;-50
2022/10/13 10:43:38;;;;;;;57.45;32.15;;;;;;;11.86;100.00;101576.97;5134222;27;20051;-49
2022/10/13 10:46:10;;;;;;;56.65;32.03;;;;;;;11.85;100.00;101575.19;5134482;27;20027;-48
2022/10/13 10:48:38;;;;;;;59.08;32.67;;;;;;;11.84;100.00;101576.00;5133395;27;20401;-50
2022/10/13 10:51:08;;;;;;;57.13;32.10;;;;;;;11.88;100.00;101573.53;5134260;27;20027;-50
2022/10/13 10:53:39;;;;;;;57.53;32.40;;;;;;;11.93;100.00;101572.00;5133755;27;20095;-50
2022/10/13 10:56:19;;;;;;;69.53;33.92;;;;;;;11.97;100.00;101574.78;5133614;27;20079;-48
2022/10/13 10:59:04;;;;;;;57.05;33.78;;;;;;;12.04;100.00;101575.88;5134039;27;20131;-50
2022/10/13 11:01:38;;;;;;;56.22;33.58;;;;;;;12.13;100.00;101565.84;5133189;27;20098;-49
2022/10/13 11:04:31;;;;;;;55.28;31.77;;;;;;;12.14;100.00;101575.38;5133348;27;20031;-50
2022/10/13 11:06:56;;;;;;;55.28;31.20;;;;;;;12.21;100.00;101567.84;5133922;27;20375;-50
2022/10/13 11:09:39;;;;;;;57.92;32.67;;;;;;;12.26;100.00;101564.56;5133319;27;20516;-51
2022/10/13 11:12:20;;;;;;;53.28;31.38;;;;;;;12.24;100.00;101557.59;5133867;27;20023;-49
2022/10/13 11:15:00;;;;;;;54.58;32.42;;;;;;;12.22;100.00;101549.78;5133873;27;20061;-49